Weather at Burris Ranch #1 Airport

Public forecast

Using degrees Fahrenheit for public forecast. Weather courtesy of forecast.io.

Closest aviation weather report (METAR) to Burris Ranch #1 Airport

Closest report is Socorro Municipal Airport, 31.3 nm (57.9 km) SSW.

2023/03/24 19:35 (retrieved 19 minutes ago)

KONM 241935Z AUTO 29015G25KT 10SM SCT080 13/M10 A2994 RMK AO2 LTG DSNT N T01251099

Closest aviation forecast (TAF) to Burris Ranch #1 Airport

Closest forecast is Albuquerque International Sunport, 33.2 nm (61.5 km) N.

2023/03/24 20:42 Ammendment (retrieved 0 seconds ago)

TAF AMD KABQ 241938Z 2420/2518 28011KT P6SM VCSH SCT025 BKN035 TEMPO 2420/2424 VRB24G34KT 5SM -TSRASN SCT015 OVC025CB FM250000 31020G30KT P6SM SCT025 BKN035 FM250200 31011KT P6SM VCSH SCT040 BKN070 FM250500 31011KT P6SM FEW080 FM251000 35010KT P6SM FEW100